createdAt,value
2023-04-22T00:00:34.152Z,43.22
2023-04-22T00:05:37.766Z,43.22
2023-04-22T00:10:42.150Z,43.55
2023-04-22T00:15:44.912Z,43.72
2023-04-22T00:20:47.686Z,43.65
2023-04-22T00:25:52.145Z,43.85
2023-04-22T00:30:54.927Z,44.03
2023-04-22T00:35:57.813Z,44.09
2023-04-22T00:41:02.224Z,44.26
2023-04-22T00:46:05.259Z,44.42
2023-04-22T00:51:08.793Z,44.56
2023-04-22T00:56:13.561Z,44.54
2023-04-22T01:01:16.478Z,44.59
2023-04-22T01:06:19.794Z,44.67
2023-04-22T01:11:24.305Z,44.66
2023-04-22T01:16:29.348Z,44.90
2023-04-22T01:21:34.285Z,44.82
2023-04-22T01:26:38.719Z,45.10
2023-04-22T01:31:41.608Z,45.25
2023-04-22T01:36:45.032Z,45.22
2023-04-22T01:41:49.128Z,45.32
2023-04-22T01:46:51.918Z,45.48
2023-04-22T01:51:54.801Z,45.79
2023-04-22T01:56:59.485Z,45.67
2023-04-22T02:02:02.268Z,45.89
2023-04-22T02:07:05.310Z,46.06
2023-04-22T02:12:10.521Z,46.18
2023-04-22T02:17:17.733Z,46.39
2023-04-22T02:22:21.813Z,46.35
2023-04-22T02:27:28.446Z,46.70
2023-04-22T02:32:31.544Z,46.78
2023-04-22T02:37:34.800Z,47.24
2023-04-22T02:42:38.887Z,47.28
2023-04-22T02:47:41.728Z,47.38
2023-04-22T02:52:44.597Z,47.48
2023-04-22T02:57:48.738Z,47.93
2023-04-22T03:02:52.055Z,48.09
2023-04-22T03:07:58.314Z,48.29
2023-04-22T03:13:02.411Z,48.19
2023-04-22T03:18:05.892Z,48.51
2023-04-22T03:23:09.026Z,48.49
2023-04-22T03:28:14.549Z,48.81
2023-04-22T03:33:17.856Z,49.14
2023-04-22T03:38:31.623Z,49.21
2023-04-22T03:43:35.860Z,49.23
2023-04-22T03:48:42.969Z,49.29
2023-04-22T03:53:52.703Z,49.46
2023-04-22T03:58:59.366Z,49.59
2023-04-22T04:04:02.912Z,49.71
2023-04-22T04:09:14.436Z,49.60
2023-04-22T04:14:18.766Z,49.62
2023-04-22T04:19:23.295Z,49.77
2023-04-22T04:24:26.901Z,49.74
2023-04-22T04:29:37.792Z,50.24
2023-04-22T04:34:47.532Z,49.95
2023-04-22T04:39:53.634Z,50.06
2023-04-22T04:45:00.790Z,49.97
2023-04-22T04:50:05.593Z,49.99
2023-04-22T04:55:10.612Z,50.04
2023-04-22T05:00:15.672Z,50.16
2023-04-22T05:05:19.919Z,50.04
2023-04-22T05:10:23.267Z,50.04
2023-04-22T05:15:27.615Z,49.88
2023-04-22T05:20:30.946Z,49.96
2023-04-22T05:25:34.984Z,49.83
2023-04-22T05:30:44.364Z,49.79
2023-04-22T05:35:47.503Z,49.54
2023-04-22T05:40:50.865Z,50.25
2023-04-22T05:45:56.557Z,49.74
2023-04-22T05:50:59.378Z,49.73
2023-04-22T05:56:05.152Z,49.46
2023-04-22T06:01:11.157Z,49.42
2023-04-22T06:06:25.843Z,49.36
2023-04-22T06:11:29.564Z,49.30
2023-04-22T06:16:34.659Z,49.24
2023-04-22T06:21:40.037Z,49.16
2023-04-22T06:26:43.016Z,49.23
2023-04-22T06:31:47.629Z,49.22
2023-04-22T06:36:51.216Z,49.20
2023-04-22T06:41:54.146Z,49.40
2023-04-22T06:47:36.869Z,49.49
2023-04-22T06:52:49.558Z,49.54
2023-04-22T06:57:52.328Z,49.32
2023-04-22T07:02:56.913Z,49.14
2023-04-22T07:08:00.742Z,49.08
2023-04-22T07:13:03.893Z,48.28
2023-04-22T07:18:08.200Z,48.16
2023-04-22T07:23:11.137Z,47.39
2023-04-22T07:28:13.928Z,46.95
2023-04-22T07:33:18.052Z,42.88
2023-04-22T07:38:20.921Z,37.20
2023-04-22T07:43:23.696Z,39.07
2023-04-22T07:48:27.804Z,40.54
2023-04-22T07:53:30.633Z,41.13
2023-04-22T07:58:33.525Z,41.49
2023-04-22T08:03:37.931Z,41.74
2023-04-22T08:08:41.005Z,41.99
2023-04-22T08:13:43.813Z,42.24
2023-04-22T08:18:47.963Z,42.18
2023-04-22T08:23:50.718Z,42.60
2023-04-22T08:28:53.483Z,42.63
2023-04-22T08:33:57.730Z,42.56
2023-04-22T08:39:00.598Z,40.45
2023-04-22T08:44:03.432Z,39.38
2023-04-22T08:49:07.749Z,37.54
2023-04-22T08:54:11.126Z,37.38
2023-04-22T08:59:14.083Z,37.52
2023-04-22T09:04:19.897Z,38.15
2023-04-22T09:09:23.602Z,38.65
2023-04-22T09:14:27.352Z,38.02
2023-04-22T09:19:31.436Z,38.49
2023-04-22T09:24:34.301Z,40.48
2023-04-22T09:29:37.488Z,38.36
2023-04-22T09:34:50.513Z,37.75
2023-04-22T09:39:53.360Z,39.30
2023-04-22T09:44:56.419Z,39.17
2023-04-22T09:50:00.874Z,37.44
2023-04-22T09:55:04.115Z,40.45
2023-04-22T10:00:10.386Z,41.40
2023-04-22T10:05:14.665Z,41.82
2023-04-22T10:10:17.751Z,42.11
2023-04-22T10:15:21.022Z,42.29
2023-04-22T10:20:25.913Z,42.20
2023-04-22T10:25:28.698Z,42.67
2023-04-22T10:30:32.759Z,42.75
2023-04-22T10:35:36.970Z,40.96
2023-04-22T10:40:39.795Z,41.84
2023-04-22T10:45:42.865Z,42.83
2023-04-22T10:50:47.304Z,43.16
2023-04-22T10:55:51.128Z,43.23
2023-04-22T11:00:59.757Z,43.19
2023-04-22T11:06:17.271Z,43.10
2023-04-22T11:11:20.125Z,43.32
2023-04-22T11:16:23.309Z,43.26
2023-04-22T11:21:27.614Z,43.13
2023-04-22T11:26:37.435Z,43.19
2023-04-22T11:31:40.821Z,43.21
2023-04-22T11:36:46.317Z,43.30
2023-04-22T11:41:49.078Z,42.98
2023-04-22T11:46:51.940Z,43.00
2023-04-22T11:51:56.965Z,43.12
2023-04-22T11:57:03.070Z,42.86
2023-04-22T12:02:06.745Z,43.15
2023-04-22T12:07:12.288Z,43.25
2023-04-22T12:12:15.780Z,43.16
2023-04-22T12:17:23.749Z,43.25
2023-04-22T12:22:28.336Z,43.28
2023-04-22T12:27:31.632Z,43.26
2023-04-22T12:32:34.594Z,42.46
2023-04-22T12:37:38.903Z,42.28
2023-04-22T12:42:41.680Z,42.66
2023-04-22T12:47:45.117Z,42.39
2023-04-22T12:52:49.241Z,42.33
2023-04-22T12:57:52.039Z,42.28
2023-04-22T13:02:55.308Z,42.09
2023-04-22T13:08:06.603Z,41.73
2023-04-22T13:13:18.483Z,41.14
2023-04-22T13:18:22.609Z,40.71
2023-04-22T13:23:27.653Z,40.33
2023-04-22T13:28:30.706Z,40.03
2023-04-22T13:33:34.633Z,39.47
2023-04-22T13:38:38.785Z,38.79
2023-04-22T13:43:41.499Z,38.85
2023-04-22T13:48:44.271Z,38.36
2023-04-22T13:53:48.398Z,38.23
2023-04-22T13:58:51.164Z,38.26
2023-04-22T14:03:54.648Z,37.94
2023-04-22T14:08:58.840Z,37.73
2023-04-22T14:14:01.724Z,37.31
2023-04-22T14:19:06.299Z,37.00
2023-04-22T14:24:10.551Z,36.31
2023-04-22T14:29:13.296Z,36.10
2023-04-22T14:34:16.088Z,36.33
2023-04-22T14:44:50.228Z,36.24
2023-04-22T14:49:53.003Z,36.75
2023-04-22T14:54:55.932Z,35.71
2023-04-22T15:00:00.051Z,36.17
2023-04-22T15:05:02.988Z,35.63
2023-04-22T15:10:07.914Z,34.97
2023-04-22T15:15:13.898Z,35.91
2023-04-22T15:20:16.900Z,35.81
2023-04-22T15:25:19.825Z,36.53
2023-04-22T15:30:24.127Z,35.97
2023-04-22T15:35:27.017Z,35.62
2023-04-22T15:40:29.797Z,35.54
2023-04-22T15:45:34.807Z,35.69
2023-04-22T15:50:38.871Z,35.43
2023-04-22T15:55:42.968Z,35.82
2023-04-22T16:00:54.267Z,36.71
2023-04-22T16:05:58.404Z,37.58
2023-04-22T16:11:01.126Z,37.80
2023-04-22T16:16:05.471Z,37.21
2023-04-22T16:21:08.271Z,37.08
2023-04-22T16:26:11.269Z,37.89
2023-04-22T16:31:17.885Z,39.25
2023-04-22T16:36:21.485Z,40.13
2023-04-22T16:41:24.272Z,40.70
2023-04-22T16:46:28.444Z,41.22
2023-04-22T16:51:31.268Z,40.44
2023-04-22T16:56:34.114Z,40.10
2023-04-22T17:01:38.255Z,40.56
2023-04-22T17:06:41.625Z,40.53
2023-04-22T17:11:44.447Z,40.80
2023-04-22T17:16:48.601Z,40.54
2023-04-22T17:21:51.897Z,40.66
2023-04-22T17:26:57.402Z,40.59
2023-04-22T17:32:02.222Z,40.73
2023-04-22T17:37:05.064Z,41.19
2023-04-22T17:42:08.853Z,41.38
2023-04-22T17:47:13.206Z,41.53
2023-04-22T17:52:16.493Z,41.61
2023-04-22T17:57:19.311Z,41.58
2023-04-22T18:02:24.999Z,41.89
2023-04-22T18:07:30.254Z,42.06
2023-04-22T18:12:34.701Z,42.50
2023-04-22T18:17:42.017Z,43.04
2023-04-22T18:22:44.808Z,43.43
2023-04-22T18:27:47.673Z,44.12
2023-04-22T18:32:52.106Z,44.30
2023-04-22T18:37:54.975Z,44.51
2023-04-22T18:42:58.147Z,44.63
2023-04-22T18:48:02.271Z,45.02
2023-04-22T18:53:05.207Z,44.95
2023-04-22T18:58:08.056Z,44.94
2023-04-22T19:03:12.752Z,45.04
2023-04-22T19:08:15.610Z,45.20
2023-04-22T19:13:29.122Z,45.25
2023-04-22T19:18:34.290Z,45.27
2023-04-22T19:23:37.935Z,45.17
2023-04-22T19:28:46.870Z,45.25
2023-04-22T19:33:51.381Z,45.46
2023-04-22T19:38:54.506Z,45.24
2023-04-22T19:43:58.886Z,45.29
2023-04-22T19:49:03.699Z,45.33
2023-04-22T19:54:07.483Z,45.15
2023-04-22T19:59:10.468Z,45.22
2023-04-22T20:04:16.045Z,45.25
2023-04-22T20:09:19.655Z,44.99
2023-04-22T20:14:23.429Z,45.34
2023-04-22T20:19:28.385Z,45.36
2023-04-22T20:24:31.263Z,45.19
2023-04-22T20:29:34.448Z,45.30
2023-04-22T20:34:39.369Z,45.21
2023-04-22T20:39:43.167Z,45.06
2023-04-22T20:44:45.947Z,45.22
2023-04-22T20:49:50.171Z,45.06
2023-04-22T20:54:55.124Z,45.07
2023-04-22T20:59:57.919Z,44.95
2023-04-22T21:05:02.267Z,44.98
2023-04-22T21:10:06.105Z,45.35
2023-04-22T21:15:10.051Z,45.57
2023-04-22T21:20:14.498Z,45.52
2023-04-22T21:25:20.765Z,45.27
2023-04-22T21:30:24.457Z,45.49
2023-04-22T21:35:29.909Z,45.67
2023-04-22T21:40:32.731Z,45.70
2023-04-22T21:45:35.874Z,45.46
2023-04-22T21:50:40.150Z,45.51
2023-04-22T21:55:42.898Z,45.33
2023-04-22T22:00:47.249Z,45.75
2023-04-22T22:05:51.781Z,45.35
2023-04-22T22:10:54.604Z,45.71
2023-04-22T22:15:57.506Z,45.56
2023-04-22T22:21:01.856Z,45.65
2023-04-22T22:26:04.650Z,45.66
2023-04-22T22:31:08.057Z,45.86
2023-04-22T22:36:12.433Z,45.99
2023-04-22T22:41:15.310Z,46.06
2023-04-22T22:46:18.187Z,45.71
2023-04-22T22:51:22.325Z,45.90
2023-04-22T22:56:25.121Z,45.84
2023-04-22T23:01:28.102Z,45.74
2023-04-22T23:06:32.810Z,45.90
2023-04-22T23:11:35.674Z,45.90
2023-04-22T23:16:38.982Z,46.03
2023-04-22T23:21:43.239Z,46.15
2023-04-22T23:26:46.517Z,45.87
2023-04-22T23:31:49.325Z,46.06
2023-04-22T23:36:53.784Z,46.23
2023-04-22T23:41:56.601Z,46.09
2023-04-22T23:46:59.374Z,46.28
2023-04-22T23:52:03.479Z,46.34
2023-04-22T23:57:06.762Z,46.46
